»·PEaware :: DAL1194 KSLC-KPDX

DAL1194 :: KSLC-KPDX

FLIGHT INFORMATION

Flight Status: Arrived
Operator:
Delta Air Lines
More flights by this operator :: More flights under this callsign
Pilot: Joe P. (13940)
Aircraft: BOEING 737-700
(B737)
More flights by this aircraft type
Origin: KSLC Salt Lake City Intl
United States
Destination: KPDX Portland Intl
United States
More flights between these airports :: More routes between these airports
Route: CGULL1 TWF J15 BOI J163 BKE JOTBA HHOOD4
File this flight plan on PilotEdge
Remarks: KSEA -PBN / A1B1C1D1L1O1S1 NAV / RNVD1E2A1 DOF / 180909 REG / N389DA EET / KZSE0057 RVR / 200 PER / C
Altitude:
(Current/Filed)
380ft
Speed:
(Current/Filed)
453kts
Departed: 09-Sep-18 05:16 PM
Arrived: 09-Sep-18 06:51 PM
Distance/Time
Traveled:
546nm/1:35
Distance/Time
To Go:
Arrived

Flight Plot

Page will automatically refresh every two minutes.

Flight plan parsing failed; only flown route is shown


Map Options




Map Legend


Flown Route
Filed Route
Departure Airport
Arrival Airport
Navaid (VOR, NDB)
Fix

Horizontal Profiles

Position Reports

Time Latitude Longitude Heading Altitude Ground
Speed
09-Sep-18 16:31 40.788533 -111.980747 280 4235ft 0kts
09-Sep-18 16:32 40.788533 -111.980747 280 4235ft 0kts
09-Sep-18 16:33 40.788533 -111.980747 280 4235ft 0kts
09-Sep-18 16:34 40.788533 -111.980747 280 4235ft 0kts
09-Sep-18 16:35 40.788533 -111.980747 280 4235ft 0kts
09-Sep-18 16:36 40.788533 -111.980747 280 4235ft 0kts
09-Sep-18 16:37 40.788533 -111.980747 280 4235ft 0kts
09-Sep-18 16:38 40.788533 -111.980747 280 4235ft 0kts
09-Sep-18 16:39 40.788533 -111.980747 280 4235ft 0kts
09-Sep-18 16:40 40.788533 -111.980747 280 4235ft 0kts
09-Sep-18 16:41 40.788533 -111.980747 280 4235ft 0kts
09-Sep-18 16:42 40.788533 -111.980747 280 4235ft 0kts
09-Sep-18 16:43 40.788533 -111.980747 280 4235ft 0kts
09-Sep-18 16:44 40.788533 -111.980747 280 4235ft 0kts
09-Sep-18 16:45 40.788533 -111.980747 280 4235ft 0kts
09-Sep-18 16:46 40.788533 -111.980747 280 4235ft 0kts
09-Sep-18 16:47 40.788533 -111.980747 280 4235ft 0kts
09-Sep-18 16:48 40.788533 -111.980747 280 4235ft 0kts
09-Sep-18 16:49 40.788533 -111.980747 280 4235ft 0kts
09-Sep-18 16:50 40.788533 -111.980747 280 4235ft 0kts
09-Sep-18 16:51 40.788533 -111.980747 280 4235ft 0kts
09-Sep-18 16:52 40.788533 -111.980747 280 4235ft 0kts
09-Sep-18 16:53 40.788533 -111.980747 280 4235ft 0kts
09-Sep-18 16:54 40.788533 -111.980747 280 4235ft 0kts
09-Sep-18 16:55 40.788533 -111.980747 280 4235ft 0kts
09-Sep-18 16:56 40.788533 -111.980747 280 4235ft 0kts
09-Sep-18 16:57 40.788533 -111.980747 280 4235ft 0kts
09-Sep-18 16:58 40.788533 -111.980747 280 4235ft 0kts
09-Sep-18 16:59 40.788533 -111.980747 280 4235ft 0kts
09-Sep-18 17:00 40.788533 -111.980747 280 4235ft 0kts
09-Sep-18 17:01 40.788533 -111.980747 280 4235ft 0kts
09-Sep-18 17:02 40.788533 -111.980747 280 4235ft 0kts
09-Sep-18 17:03 40.788533 -111.980747 280 4235ft 0kts
09-Sep-18 17:04 40.788533 -111.980747 280 4235ft 0kts
09-Sep-18 17:05 40.788526 -111.980695 280 4235ft 1kts
09-Sep-18 17:06 40.788403 -111.979860 280 4235ft 2kts
09-Sep-18 17:07 40.788362 -111.979584 280 4235ft 0kts
09-Sep-18 17:08 40.788363 -111.979585 280 4235ft 0kts
09-Sep-18 17:09 40.788363 -111.979587 280 4235ft 0kts
09-Sep-18 17:10 40.788363 -111.979589 280 4235ft 0kts
09-Sep-18 17:11 40.788564 -111.979896 342 4235ft 6kts
09-Sep-18 17:12 40.789760 -111.977620 106 4235ft 7kts
09-Sep-18 17:13 40.785083 -111.976574 174 4235ft 20kts
09-Sep-18 17:14 40.780722 -111.975892 171 4235ft 11kts
09-Sep-18 17:15 40.777854 -111.975304 174 4235ft 15kts
09-Sep-18 17:16 40.774439 -111.974646 97 4235ft 0kts
09-Sep-18 17:17 40.775021 -111.973383 48 4235ft 7kts
09-Sep-18 17:18 40.779375 -111.973676 355 4235ft 91kts
09-Sep-18 17:19 40.820926 -111.986458 332 6475ft 167kts
09-Sep-18 17:20 40.872162 -112.020949 332 7676ft 254kts
09-Sep-18 17:21 40.930798 -112.077766 297 10671ft 269kts
09-Sep-18 17:22 40.966695 -112.166491 296 14035ft 276kts
09-Sep-18 17:23 41.003065 -112.257611 296 17184ft 284kts
09-Sep-18 17:24 41.040575 -112.352032 295 20012ft 295kts
09-Sep-18 17:25 41.089906 -112.441607 320 22284ft 325kts
09-Sep-18 17:26 41.173707 -112.513408 322 23012ft 388kts
09-Sep-18 17:27 41.263402 -112.605072 318 24157ft 418kts
09-Sep-18 17:28 41.344525 -112.716687 309 25955ft 423kts
09-Sep-18 17:29 41.423801 -112.834180 308 27584ft 429kts
09-Sep-18 17:30 41.502755 -112.955420 308 28989ft 436kts
09-Sep-18 17:31 41.582595 -113.078544 308 30414ft 439kts
09-Sep-18 17:32 41.662166 -113.201108 308 32049ft 435kts
09-Sep-18 17:33 41.740878 -113.322615 308 33652ft 429kts
09-Sep-18 17:34 41.818741 -113.443604 307 35007ft 427kts
09-Sep-18 17:35 41.895816 -113.563930 307 36289ft 425kts
09-Sep-18 17:36 41.972284 -113.683577 307 37489ft 422kts
09-Sep-18 17:37 42.049005 -113.804152 307 38049ft 425kts
09-Sep-18 17:38 42.124933 -113.924495 307 38052ft 421kts
09-Sep-18 17:39 42.200875 -114.044875 307 38054ft 421kts
09-Sep-18 17:40 42.276871 -114.165407 307 38055ft 421kts
09-Sep-18 17:41 42.352776 -114.285613 307 38057ft 421kts
09-Sep-18 17:42 42.428310 -114.406602 306 38059ft 420kts
09-Sep-18 17:43 42.504250 -114.527350 307 38059ft 420kts
09-Sep-18 17:44 42.581207 -114.646434 307 38055ft 420kts
09-Sep-18 17:45 42.658078 -114.766190 307 38052ft 419kts
09-Sep-18 17:46 42.735020 -114.886068 307 38049ft 419kts
09-Sep-18 17:47 42.811571 -115.005414 306 38044ft 419kts
09-Sep-18 17:48 42.888186 -115.125701 306 38037ft 419kts
09-Sep-18 17:49 42.964404 -115.245977 306 38025ft 418kts
09-Sep-18 17:50 43.040394 -115.366422 306 38011ft 419kts
09-Sep-18 17:51 43.116282 -115.487220 306 37998ft 418kts
09-Sep-18 17:52 43.192045 -115.608329 306 37993ft 419kts
09-Sep-18 17:53 43.267624 -115.729651 305 37993ft 418kts
09-Sep-18 17:54 43.343100 -115.851306 305 37995ft 419kts
09-Sep-18 17:55 43.418843 -115.973424 305 37995ft 419kts
09-Sep-18 17:56 43.493925 -116.095806 305 37992ft 418kts
09-Sep-18 17:57 43.571824 -116.215499 312 37990ft 423kts
09-Sep-18 17:58 43.660283 -116.323571 313 37985ft 424kts
09-Sep-18 17:59 43.748353 -116.431754 312 37978ft 424kts
09-Sep-18 18:00 43.836327 -116.540000 313 37979ft 424kts
09-Sep-18 18:01 43.924576 -116.648576 312 37980ft 424kts
09-Sep-18 18:02 44.012556 -116.757589 312 37975ft 424kts
09-Sep-18 18:03 44.100866 -116.867574 312 37974ft 426kts
09-Sep-18 18:04 44.188888 -116.977693 312 37975ft 426kts
09-Sep-18 18:05 44.276984 -117.088382 312 37982ft 426kts
09-Sep-18 18:06 44.365192 -117.199685 312 37993ft 426kts
09-Sep-18 18:07 44.452856 -117.310776 312 38005ft 427kts
09-Sep-18 18:08 44.540824 -117.422728 312 38013ft 426kts
09-Sep-18 18:09 44.628458 -117.534439 312 38018ft 426kts
09-Sep-18 18:10 44.715905 -117.646624 312 38020ft 426kts
09-Sep-18 18:11 44.803148 -117.759391 311 38019ft 425kts
09-Sep-18 18:12 44.850906 -117.903433 279 38020ft 410kts
09-Sep-18 18:13 44.872829 -118.061030 278 38019ft 408kts
09-Sep-18 18:14 44.893443 -118.218540 278 38020ft 408kts
09-Sep-18 18:15 44.914058 -118.376244 278 38023ft 408kts
09-Sep-18 18:16 44.934360 -118.533571 278 38019ft 408kts
09-Sep-18 18:17 44.954242 -118.691186 278 38026ft 408kts
09-Sep-18 18:18 44.973857 -118.849140 278 38025ft 408kts
09-Sep-18 18:19 44.993183 -119.006832 277 37997ft 408kts
09-Sep-18 18:20 45.012309 -119.164847 277 37981ft 408kts
09-Sep-18 18:21 45.031208 -119.322915 277 37981ft 408kts
09-Sep-18 18:22 45.049919 -119.481376 277 37979ft 407kts
09-Sep-18 18:23 45.068367 -119.639529 277 37479ft 404kts
09-Sep-18 18:24 45.086457 -119.796585 277 34728ft 407kts
09-Sep-18 18:25 45.104597 -119.956066 277 31791ft 410kts
09-Sep-18 18:26 45.122343 -120.112210 276 29596ft 395kts
09-Sep-18 18:27 45.139178 -120.263073 276 27534ft 381kts
09-Sep-18 18:28 45.155015 -120.409480 276 25518ft 371kts
09-Sep-18 18:29 45.180250 -120.549266 291 24025ft 360kts
09-Sep-18 18:30 45.224343 -120.668019 293 22787ft 336kts
09-Sep-18 18:31 45.270050 -120.786511 293 20719ft 353kts
09-Sep-18 18:32 45.317351 -120.910444 293 19232ft 354kts
09-Sep-18 18:33 45.363719 -121.032581 293 17759ft 347kts
09-Sep-18 18:34 45.409262 -121.152497 293 16314ft 342kts
09-Sep-18 18:35 45.443616 -121.276372 281 14904ft 332kts
09-Sep-18 18:36 45.467359 -121.399192 281 13557ft 316kts
09-Sep-18 18:37 45.491060 -121.517929 281 12258ft 306kts
09-Sep-18 18:38 45.513383 -121.632432 282 11006ft 290kts
09-Sep-18 18:39 45.530971 -121.741624 272 10059ft 271kts
09-Sep-18 18:40 45.534637 -121.852866 271 7677ft 288kts
09-Sep-18 18:41 45.538338 -121.960449 272 6714ft 244kts
09-Sep-18 18:42 45.539360 -122.044019 247 6615ft 180kts
09-Sep-18 18:43 45.512647 -122.101305 235 6238ft 173kts
09-Sep-18 18:44 45.484611 -122.157091 235 5304ft 171kts
09-Sep-18 18:45 45.464783 -122.217223 247 4302ft 168kts
09-Sep-18 18:46 45.466605 -122.279955 290 3993ft 165kts
09-Sep-18 18:47 45.485837 -122.340916 293 4065ft 181kts
09-Sep-18 18:48 45.508073 -122.397765 301 3385ft 160kts
09-Sep-18 18:49 45.529177 -122.450206 293 2227ft 148kts
09-Sep-18 18:50 45.548773 -122.502877 297 1226ft 149kts
09-Sep-18 18:51 45.568670 -122.553982 300 523ft 147kts
09-Sep-18 18:52 45.586464 -122.599204 298 26ft 61kts
09-Sep-18 18:53 45.589174 -122.604781 9 26ft 8kts
09-Sep-18 18:54 45.589358 -122.604658 36 26ft 0kts
09-Sep-18 18:55 45.589936 -122.602747 113 26ft 11kts
09-Sep-18 18:56 45.589888 -122.600239 76 26ft 4kts
09-Sep-18 18:57 45.589930 -122.599987 76 26ft 0kts
09-Sep-18 18:58 45.589930 -122.599987 76 26ft 0kts
09-Sep-18 18:59 45.589930 -122.599987 76 26ft 0kts
09-Sep-18 19:00 45.589930 -122.599987 76 26ft 0kts
09-Sep-18 19:01 45.589930 -122.599987 76 26ft 0kts
09-Sep-18 19:02 45.589930 -122.599987 76 26ft 0kts
09-Sep-18 19:03 45.589930 -122.599987 76 26ft 0kts
09-Sep-18 19:04 45.589930 -122.599987 76 26ft 0kts
09-Sep-18 19:05 45.589930 -122.599987 76 26ft 0kts
09-Sep-18 19:06 45.589930 -122.599987 76 26ft 0kts
09-Sep-18 19:07 45.589930 -122.599987 76 26ft 0kts

Navigation Log

Ident Type
Flight plan parsing failed, navigation log unavailable